West Palm Beach, FL (33406)

7:09 AM EST on December 28, 2014 (GMT -0500)
Lake Clarke Shores - Caribbean Rd. East | Change Station
CLOSE
Current Station
Personal Weather Station
Location: Lake Clarke Shores, FL
Elevation: 16 ft
Nearby Weather Stations

Elev 16 ft 26.63 °N, 80.07 °W | Updated 5 seconds ago

Shallow Fog
Shallow Fog
66.7 °F
Feels Like 66.7 °F
N
0.0
Wind Variable Wind from NW
Gusts 0.0 mph

Today
High -- | Low -- °F
--% Chance of Precip.
Yesterday
High -- | Low -- °F
Precip. -- in
7:07 AM 5:36 PM
Waxing Crescent, 47% visible
Pressure 30.14 in
Visibility 8.0 miles
Clouds Few 2500 ft
Scattered Clouds 25000 ft
Dew Point 65 °F
Humidity 95%
Rainfall 0.00 in
Snow Depth Not available.
UV 0 out of 12
Pollen 4.90 out of 12
Air Quality Not available.
Flu Activity Not available.
METAR KPBI 281153Z 00000KT 8SM MIFG FEW025 SCT250 19/19 A3014 RMK AO2 SLP206 T01940189 10211 20189 53005

More Conditions Fewer Conditions

Pressure 30.14 in
Visibility 8.0 miles
Clouds Few 2500 ft
Scattered Clouds 25000 ft
Dew Point 65 °F
Humidity 95%
Rainfall 0.00 in
Snow Depth Not available.
UV 0 out of 12
Pollen 4.90 out of 12
Air Quality Not available.
Flu Activity Not available.
METAR KPBI 281153Z 00000KT 8SM MIFG FEW025 SCT250 19/19 A3014 RMK AO2 SLP206 T01940189 10211 20189 53005

More Conditions Fewer Conditions

10-Day Weather Forecast

Almanac

Astronomy

Dec. 28, 2014 Rise Set
Actual Time
Civil Twilight
Nautical Twilight
Astronomical Twilight
Moon
Length of Visible Light
Length of Day
Tomorrow will be .
, % of the Moon is Illuminated

Today's Extremes

State Highs State Lows

Community

WunderPhotos

Upload Photos

1,781,231 photos uploaded!

WunderBlogs® & News

Nearby

Air Quality

  Air Quality AQ Index Pollutant
Not available.

Snow Depth

Station Depth Elevation

Earthquake Activity

City Distance Mag. Time & Date
Minimum magnitude displayed is 2.5.

Coastal Water Temperatures

Place Temperature

Nearby Weather Stations